createdAt,value
2023-02-14T00:02:06.995Z,102521.59
2023-02-14T00:04:34.892Z,102515.56
2023-02-14T00:07:02.665Z,102523.00
2023-02-14T00:09:30.564Z,102523.00
2023-02-14T00:11:58.346Z,102529.31
2023-02-14T00:14:43.813Z,102529.56
2023-02-14T00:17:11.606Z,102524.28
2023-02-14T00:19:39.522Z,102523.53
2023-02-14T00:22:07.274Z,102528.25
2023-02-14T00:24:35.017Z,102517.34
2023-02-14T00:27:03.008Z,102525.41
2023-02-14T00:29:30.873Z,102521.09
2023-02-14T00:31:58.905Z,102511.16
2023-02-14T00:34:26.855Z,102519.34
2023-02-14T00:36:54.615Z,102517.63
2023-02-14T00:39:22.440Z,102508.59
2023-02-14T00:41:50.357Z,102507.69
2023-02-14T00:44:18.144Z,102511.44
2023-02-14T00:46:45.914Z,102512.28
2023-02-14T00:49:13.688Z,102511.44
2023-02-14T00:51:41.485Z,102512.28
2023-02-14T00:54:09.239Z,102516.78
2023-02-14T00:56:37.147Z,102516.03
2023-02-14T00:59:05.113Z,102512.44
2023-02-14T01:01:32.915Z,102507.00
2023-02-14T01:04:00.878Z,102513.16
2023-02-14T01:06:28.632Z,102523.09
2023-02-14T01:08:56.482Z,102513.16
2023-02-14T01:11:24.228Z,102510.44
2023-02-14T01:13:51.988Z,102513.16
2023-02-14T01:19:05.279Z,102504.28
2023-02-14T01:21:33.226Z,102504.28
2023-02-14T01:24:00.993Z,102500.53
2023-02-14T01:26:28.758Z,102499.69
2023-02-14T01:28:56.601Z,102495.19
2023-02-14T01:31:24.647Z,102496.78
2023-02-14T01:33:52.493Z,102492.25
2023-02-14T01:36:20.355Z,102491.50
2023-02-14T01:38:48.241Z,102482.47
2023-02-14T01:41:15.975Z,102485.19
2023-02-14T01:43:43.780Z,102477.00
2023-02-14T01:46:11.560Z,102483.31
2023-02-14T01:48:39.382Z,102477.25
2023-02-14T01:51:07.207Z,102475.50
2023-02-14T01:53:34.959Z,102487.41
2023-02-14T01:56:02.927Z,102479.75
2023-02-14T01:58:30.705Z,102484.94
2023-02-14T02:00:57.818Z,102480.78
2023-02-14T02:03:25.938Z,102484.47
2023-02-14T02:05:53.847Z,102482.75
2023-02-14T02:08:21.668Z,102481.91
2023-02-14T02:10:49.520Z,102471.13
2023-02-14T02:13:17.322Z,102474.00
2023-02-14T02:15:45.144Z,102470.41
2023-02-14T02:18:12.908Z,102475.88
2023-02-14T02:20:40.615Z,102469.53
2023-02-14T02:23:08.578Z,102476.84
2023-02-14T02:25:36.445Z,102467.69
2023-02-14T02:28:04.177Z,102467.53
2023-02-14T02:30:32.121Z,102463.22
2023-02-14T02:32:59.893Z,102464.97
2023-02-14T02:35:27.617Z,102460.50
2023-02-14T02:37:55.476Z,102461.34
2023-02-14T02:40:23.191Z,102463.09
2023-02-14T02:42:51.177Z,102461.22
2023-02-14T02:45:18.930Z,102461.22
2023-02-14T02:47:46.666Z,102463.09
2023-02-14T02:50:31.981Z,102459.38
2023-02-14T02:53:04.217Z,102457.50
2023-02-14T02:55:52.089Z,102450.06
2023-02-14T02:58:19.104Z,102453.63
2023-02-14T03:00:46.866Z,102447.31
2023-02-14T03:03:32.431Z,102447.31
2023-02-14T03:06:00.230Z,102447.31
2023-02-14T03:08:28.318Z,102451.91
2023-02-14T03:10:56.066Z,102454.50
2023-02-14T03:13:23.868Z,102452.78
2023-02-14T03:15:51.763Z,102450.19
2023-02-14T03:18:19.596Z,102459.75
2023-02-14T03:20:46.342Z,102456.06
2023-02-14T03:23:14.209Z,102455.31
2023-02-14T03:25:42.065Z,102460.88
2023-02-14T03:28:09.809Z,102469.34
2023-02-14T03:30:41.711Z,102456.72
2023-02-14T03:33:09.523Z,102462.28
2023-02-14T03:35:37.332Z,102456.72
2023-02-14T03:38:05.105Z,102457.84
2023-02-14T03:40:32.913Z,102464.28
2023-02-14T03:43:00.697Z,102462.56
2023-02-14T03:45:29.110Z,102469.72
2023-02-14T03:47:57.062Z,102467.00
2023-02-14T03:50:24.838Z,102469.72
2023-02-14T03:52:52.626Z,102459.56
2023-02-14T03:55:20.419Z,102462.28
2023-02-14T03:57:49.092Z,102465.00
2023-02-14T04:00:18.371Z,102465.88
2023-02-14T04:02:46.709Z,102462.16
2023-02-14T04:05:14.471Z,102458.44
2023-02-14T04:07:42.284Z,102457.31
2023-02-14T04:10:10.138Z,102457.31
2023-02-14T04:12:38.362Z,102461.03
2023-02-14T04:15:06.249Z,102458.31
2023-02-14T04:17:51.813Z,102452.59
2023-02-14T04:20:19.643Z,102451.72
2023-02-14T04:22:47.517Z,102448.84
2023-02-14T04:25:15.347Z,102456.91
2023-02-14T04:27:43.326Z,102444.13
2023-02-14T04:30:12.510Z,102451.47
2023-02-14T04:32:40.352Z,102445.88
2023-02-14T04:35:08.090Z,102444.13
2023-02-14T04:37:35.917Z,102439.69
2023-02-14T04:40:03.660Z,102438.84
2023-02-14T04:42:31.425Z,102441.56
2023-02-14T04:44:59.212Z,102429.78
2023-02-14T04:47:26.995Z,102433.50
2023-02-14T04:49:54.734Z,102431.66
2023-02-14T04:52:22.514Z,102423.63
2023-02-14T04:54:50.378Z,102434.53
2023-02-14T04:57:18.254Z,102437.38
2023-02-14T04:59:46.092Z,102425.72
2023-02-14T05:02:13.872Z,102434.06
2023-02-14T05:04:41.644Z,102436.78
2023-02-14T05:07:09.424Z,102427.72
2023-02-14T05:09:37.250Z,102430.59
2023-02-14T05:12:05.029Z,102423.41
2023-02-14T05:14:32.852Z,102418.84
2023-02-14T05:17:00.631Z,102428.84
2023-02-14T05:19:28.440Z,102426.28
2023-02-14T05:21:56.190Z,102422.94
2023-02-14T05:24:24.149Z,102425.09
2023-02-14T05:26:51.932Z,102417.31
2023-02-14T05:29:19.697Z,102416.44
2023-02-14T05:31:47.509Z,102421.91
2023-02-14T05:34:15.289Z,102415.59
2023-02-14T05:36:43.103Z,102412.88
2023-02-14T05:39:10.922Z,102406.56
2023-02-14T05:41:41.391Z,102414.84
2023-02-14T05:44:09.128Z,102412.97
2023-02-14T05:46:36.967Z,102410.25
2023-02-14T05:49:05.342Z,102411.59
2023-02-14T05:51:33.121Z,102417.03
2023-02-14T05:54:01.457Z,102406.41
2023-02-14T05:56:29.259Z,102412.75
2023-02-14T05:58:57.033Z,102418.78
2023-02-14T06:01:24.957Z,102417.91
2023-02-14T06:03:52.793Z,102420.50
2023-02-14T06:06:20.636Z,102415.91
2023-02-14T06:08:48.432Z,102430.25
2023-02-14T06:11:16.248Z,102425.66
2023-02-14T06:13:44.044Z,102427.25
2023-02-14T06:16:11.947Z,102422.69
2023-02-14T06:18:39.804Z,102427.16
2023-02-14T06:21:07.820Z,102421.81
2023-02-14T06:23:35.656Z,102423.69
2023-02-14T06:26:03.839Z,102423.56
2023-02-14T06:28:33.083Z,102426.13
2023-02-14T06:31:01.722Z,102426.41
2023-02-14T06:33:29.817Z,102428.16
2023-02-14T06:35:57.583Z,102423.41
2023-02-14T06:38:25.372Z,102427.88
2023-02-14T06:40:53.160Z,102421.69
2023-02-14T06:43:20.923Z,102427.16
2023-02-14T06:45:48.733Z,102421.69
2023-02-14T06:48:16.535Z,102421.69
2023-02-14T06:50:44.296Z,102423.56
2023-02-14T06:53:12.057Z,102421.97
2023-02-14T06:55:39.925Z,102420.22
2023-02-14T06:58:07.709Z,102421.09
2023-02-14T07:00:35.506Z,102420.22
2023-02-14T07:03:03.437Z,102422.09
2023-02-14T07:05:31.873Z,102419.75
2023-02-14T07:07:59.685Z,102414.47
2023-02-14T07:10:27.412Z,102420.03
2023-02-14T07:12:55.171Z,102421.03
2023-02-14T07:15:22.941Z,102412.13
2023-02-14T07:17:50.679Z,102416.72
2023-02-14T07:20:19.336Z,102421.44
2023-02-14T07:22:47.128Z,102417.00
2023-02-14T07:25:14.923Z,102423.28
2023-02-14T07:27:42.727Z,102426.75
2023-02-14T07:30:10.529Z,102424.16
2023-02-14T07:32:38.313Z,102410.41
2023-02-14T07:35:06.053Z,102411.38
2023-02-14T07:37:33.961Z,102414.13
2023-02-14T07:40:01.733Z,102413.13
2023-02-14T07:42:29.529Z,102414.84
2023-02-14T07:44:57.289Z,102409.28
2023-02-14T07:47:25.817Z,102403.94
2023-02-14T07:49:53.680Z,102410.41
2023-02-14T07:52:21.464Z,102404.97
2023-02-14T07:54:49.294Z,102404.97
2023-02-14T07:57:17.037Z,102405.69
2023-02-14T07:59:44.790Z,102402.69
2023-02-14T08:02:12.751Z,102397.38
2023-02-14T08:04:40.647Z,102402.69
2023-02-14T08:07:08.500Z,102395.50
2023-02-14T08:09:36.296Z,102394.53
2023-02-14T08:12:21.688Z,102395.50
2023-02-14T08:14:49.445Z,102405.44
2023-02-14T08:17:17.284Z,102409.59
2023-02-14T08:19:45.204Z,102407.03
2023-02-14T08:22:13.115Z,102408.72
2023-02-14T08:24:40.940Z,102409.47
2023-02-14T08:27:08.678Z,102407.59
2023-02-14T08:29:36.473Z,102407.59
2023-02-14T08:32:04.330Z,102412.19
2023-02-14T08:34:32.136Z,102411.34
2023-02-14T08:36:59.958Z,102400.44
2023-02-14T08:39:27.744Z,102394.09
2023-02-14T08:41:55.633Z,102407.72
2023-02-14T08:44:23.790Z,102407.72
2023-02-14T08:46:51.639Z,102405.28
2023-02-14T08:49:19.427Z,102407.41
2023-02-14T08:51:47.201Z,102400.25
2023-02-14T08:54:14.943Z,102395.94
2023-02-14T08:56:42.915Z,102396.06
2023-02-14T08:59:10.621Z,102394.34
2023-02-14T09:01:38.586Z,102400.66
2023-02-14T09:04:06.415Z,102397.19
2023-02-14T09:06:36.979Z,102395.19
2023-02-14T09:09:04.729Z,102400.75
2023-02-14T09:11:32.552Z,102398.78
2023-02-14T09:14:00.310Z,102393.44
2023-02-14T09:16:28.176Z,102398.03
2023-02-14T09:18:56.849Z,102397.78
2023-02-14T09:21:25.624Z,102398.91
2023-02-14T09:23:53.766Z,102403.66
2023-02-14T09:26:21.828Z,102403.50
2023-02-14T09:28:50.375Z,102403.38
2023-02-14T09:31:19.524Z,102409.69
2023-02-14T09:33:52.843Z,102404.22
2023-02-14T09:36:38.798Z,102407.81
2023-02-14T09:39:06.552Z,102407.81
2023-02-14T09:41:34.472Z,102410.41
2023-02-14T09:44:02.222Z,102400.38
2023-02-14T09:46:31.505Z,102404.81
2023-02-14T09:48:59.372Z,102399.53
2023-02-14T09:51:27.148Z,102403.84
2023-02-14T09:53:54.967Z,102399.25
2023-02-14T09:56:22.728Z,102397.38
2023-02-14T09:58:50.580Z,102395.66
2023-02-14T10:01:18.405Z,102395.66
2023-02-14T10:03:46.185Z,102395.50
2023-02-14T10:06:13.981Z,102391.81
2023-02-14T10:08:41.809Z,102401.84
2023-02-14T10:11:09.534Z,102402.69
2023-02-14T10:13:37.306Z,102399.13
2023-02-14T10:16:05.121Z,102398.13
2023-02-14T10:18:33.171Z,102398.22
2023-02-14T10:21:01.291Z,102392.78
2023-02-14T10:23:29.267Z,102393.53
2023-02-14T10:25:57.022Z,102380.91
2023-02-14T10:28:24.826Z,102388.47
2023-02-14T10:30:52.637Z,102391.47
2023-02-14T10:33:22.858Z,102390.59
2023-02-14T10:35:50.886Z,102393.06
2023-02-14T10:38:18.698Z,102382.31
2023-02-14T10:40:46.470Z,102382.31
2023-02-14T10:43:15.421Z,102380.72
2023-02-14T10:45:43.335Z,102380.72
2023-02-14T10:48:13.243Z,102381.84
2023-02-14T10:50:41.269Z,102376.66
2023-02-14T10:53:09.083Z,102383.97
2023-02-14T10:55:36.849Z,102380.50
2023-02-14T10:58:05.177Z,102370.63
2023-02-14T11:00:32.910Z,102374.34
2023-02-14T11:03:00.667Z,102375.31
2023-02-14T11:05:28.389Z,102377.19
2023-02-14T11:07:56.498Z,102379.06
2023-02-14T11:10:24.265Z,102367.91
2023-02-14T11:12:52.031Z,102366.88
2023-02-14T11:15:19.940Z,102369.59
2023-02-14T11:17:47.725Z,102361.19
2023-02-14T11:20:16.991Z,102354.75
2023-02-14T11:22:44.849Z,102352.28
2023-02-14T11:25:12.651Z,102344.25
2023-02-14T11:27:40.416Z,102342.38
2023-02-14T11:30:08.444Z,102346.09
2023-02-14T11:32:37.602Z,102342.38
2023-02-14T11:35:05.428Z,102342.38
2023-02-14T11:37:34.039Z,102334.19
2023-02-14T11:40:04.292Z,102331.47
2023-02-14T11:42:32.234Z,102322.44
2023-02-14T11:45:00.027Z,102323.47
2023-02-14T11:47:28.134Z,102326.19
2023-02-14T11:49:56.056Z,102326.03
2023-02-14T11:52:29.049Z,102314.28
2023-02-14T11:54:56.823Z,102319.72
2023-02-14T11:57:26.260Z,102317.16
2023-02-14T11:59:54.251Z,102314.28
2023-02-14T12:02:23.195Z,102312.41
2023-02-14T12:04:51.326Z,102313.31
2023-02-14T12:07:19.122Z,102303.38
2023-02-14T12:09:47.027Z,102306.84
2023-02-14T12:12:14.816Z,102300.53
2023-02-14T12:14:42.768Z,102296.81
2023-02-14T12:17:10.580Z,102303.00
2023-02-14T12:19:38.406Z,102301.13
2023-02-14T12:22:06.325Z,102296.53
2023-02-14T12:24:34.298Z,102296.53
2023-02-14T12:27:02.102Z,102292.94
2023-02-14T12:29:29.843Z,102291.38
2023-02-14T12:31:57.827Z,102279.63
2023-02-14T12:34:26.791Z,102273.16
2023-02-14T12:36:55.325Z,102283.94
2023-02-14T12:39:23.220Z,102272.03
2023-02-14T12:41:51.019Z,102269.56
2023-02-14T12:44:18.801Z,102271.72
2023-02-14T12:46:46.596Z,102256.50
2023-02-14T12:49:14.444Z,102256.78
2023-02-14T12:51:42.225Z,102248.63
2023-02-14T12:54:09.933Z,102252.78
2023-02-14T12:56:37.736Z,102254.66
2023-02-14T12:59:05.541Z,102245.63
2023-02-14T13:01:39.062Z,102246.34
2023-02-14T13:04:07.060Z,102238.59
2023-02-14T13:06:34.845Z,102232.28
2023-02-14T13:09:02.662Z,102236.72
2023-02-14T13:11:30.525Z,102229.28
2023-02-14T13:14:04.374Z,102238.19
2023-02-14T13:16:32.287Z,102231.59
2023-02-14T13:19:00.130Z,102229.75
2023-02-14T13:21:27.975Z,102228.72
2023-02-14T13:23:55.680Z,102216.13
2023-02-14T13:26:23.460Z,102220.56
2023-02-14T13:28:51.283Z,102219.28
2023-02-14T13:31:19.172Z,102224.75
2023-02-14T13:33:46.973Z,102215.72
2023-02-14T13:36:14.738Z,102213.69
2023-02-14T13:38:42.469Z,102214.59
2023-02-14T13:41:10.257Z,102215.44
2023-02-14T13:43:38.022Z,102210.97
2023-02-14T13:46:06.949Z,102210.97
2023-02-14T13:48:35.987Z,102207.38
2023-02-14T13:51:05.187Z,102207.38
2023-02-14T13:53:32.937Z,102203.13
2023-02-14T13:56:00.969Z,102205.97
2023-02-14T13:58:29.459Z,102191.66
2023-02-14T14:00:57.287Z,102192.34
2023-02-14T14:03:25.081Z,102197.22
2023-02-14T14:05:52.811Z,102197.22
2023-02-14T14:08:22.012Z,102197.09
2023-02-14T14:10:49.811Z,102196.50
2023-02-14T14:13:17.746Z,102196.50
2023-02-14T14:15:45.557Z,102194.38
2023-02-14T14:18:13.400Z,102197.22
2023-02-14T14:20:41.226Z,102195.22
2023-02-14T14:23:09.008Z,102193.66
2023-02-14T14:25:37.567Z,102194.78
2023-02-14T14:28:05.464Z,102192.78
2023-02-14T14:30:33.822Z,102188.59
2023-02-14T14:33:03.522Z,102187.88
2023-02-14T14:35:31.443Z,102181.00
2023-02-14T14:37:59.852Z,102187.44
2023-02-14T14:40:28.716Z,102183.00
2023-02-14T14:42:56.452Z,102186.44
2023-02-14T14:45:27.113Z,102180.69
2023-02-14T14:47:54.904Z,102187.16
2023-02-14T14:50:27.378Z,102185.19
2023-02-14T14:52:55.165Z,102187.16
2023-02-14T14:55:22.944Z,102181.06
2023-02-14T14:57:50.744Z,102182.19
2023-02-14T15:00:18.715Z,102186.44
2023-02-14T15:02:47.657Z,102174.38
2023-02-14T15:05:15.406Z,102182.06
2023-02-14T15:07:43.164Z,102177.81
2023-02-14T15:10:10.998Z,102179.94
2023-02-14T15:12:56.160Z,102175.25
2023-02-14T15:15:23.915Z,102168.59
2023-02-14T15:17:51.790Z,102175.00
2023-02-14T15:20:19.575Z,102173.81
2023-02-14T15:22:47.339Z,102165.00
2023-02-14T15:25:15.039Z,102157.09
2023-02-14T15:27:42.763Z,102150.47
2023-02-14T15:30:10.706Z,102148.13
2023-02-14T15:32:38.590Z,102148.59
2023-02-14T15:35:06.384Z,102150.06
2023-02-14T15:37:34.158Z,102137.94
2023-02-14T15:40:01.883Z,102139.63
2023-02-14T15:42:30.246Z,102132.44
2023-02-14T15:44:58.021Z,102133.16
2023-02-14T15:47:25.720Z,102136.34
2023-02-14T15:49:53.398Z,102132.59
2023-02-14T15:52:21.967Z,102122.75
2023-02-14T15:54:49.720Z,102129.63
2023-02-14T15:57:17.423Z,102135.97
2023-02-14T15:59:45.173Z,102127.59
2023-02-14T16:02:13.056Z,102121.56
2023-02-14T16:04:40.849Z,102126.16
2023-02-14T16:07:08.590Z,102133.69
2023-02-14T16:09:36.534Z,102128.06
2023-02-14T16:12:04.268Z,102122.81
2023-02-14T16:14:32.276Z,102129.19
2023-02-14T16:17:00.176Z,102127.97
2023-02-14T16:19:29.767Z,102116.38
2023-02-14T16:22:01.687Z,102124.81
2023-02-14T16:24:29.421Z,102120.28
2023-02-14T16:26:58.221Z,102114.06
2023-02-14T16:29:28.764Z,102129.06
2023-02-14T16:32:16.192Z,102129.69
2023-02-14T16:34:44.473Z,102124.97
2023-02-14T16:37:12.310Z,102129.97
2023-02-14T16:39:43.699Z,102122.47
2023-02-14T16:42:20.529Z,102119.22
2023-02-14T16:44:57.931Z,102123.22
2023-02-14T16:48:35.621Z,102130.22
2023-02-14T16:50:37.807Z,102125.59
2023-02-14T16:53:20.090Z,102125.66
2023-02-14T16:55:47.888Z,102123.13
2023-02-14T16:58:23.081Z,102121.66
2023-02-14T17:00:53.189Z,102116.78
2023-02-14T17:03:21.251Z,102118.81
2023-02-14T17:05:52.590Z,102130.56
2023-02-14T17:08:20.374Z,102128.41
2023-02-14T17:10:50.514Z,102129.25
2023-02-14T17:13:18.345Z,102128.44
2023-02-14T17:15:48.321Z,102127.69
2023-02-14T17:18:18.794Z,102123.59
2023-02-14T17:20:46.618Z,102130.56
2023-02-14T17:23:15.480Z,102122.25
2023-02-14T17:25:43.417Z,102124.84
2023-02-14T17:28:11.222Z,102128.34
2023-02-14T17:30:40.523Z,102128.66
2023-02-14T17:33:09.399Z,102116.47
2023-02-14T17:35:37.118Z,102123.44
2023-02-14T17:38:04.859Z,102122.97
2023-02-14T17:40:32.635Z,102123.44
2023-02-14T17:43:00.493Z,102109.88
2023-02-14T17:45:28.330Z,102120.06
2023-02-14T17:47:56.170Z,102122.81
2023-02-14T17:50:23.896Z,102112.72
2023-02-14T17:52:51.621Z,102111.50
2023-02-14T17:55:19.401Z,102117.44
2023-02-14T17:57:47.163Z,102115.03
2023-02-14T18:00:16.640Z,102112.41
2023-02-14T18:02:44.666Z,102114.94
2023-02-14T18:05:12.501Z,102113.34
2023-02-14T18:07:40.238Z,102103.72
2023-02-14T18:10:07.968Z,102099.53
2023-02-14T18:12:35.808Z,102107.38
2023-02-14T18:15:03.551Z,102107.41
2023-02-14T18:17:31.344Z,102105.47
2023-02-14T18:19:59.255Z,102113.25
2023-02-14T18:22:28.353Z,102114.16
2023-02-14T18:24:58.679Z,102109.13
2023-02-14T18:27:27.031Z,102108.56
2023-02-14T18:29:54.774Z,102110.13
2023-02-14T18:32:22.566Z,102110.78
2023-02-14T18:34:51.163Z,102104.56
2023-02-14T18:37:19.114Z,102108.63
2023-02-14T18:39:46.936Z,102094.66
2023-02-14T18:42:14.698Z,102095.31
2023-02-14T18:44:51.612Z,102087.47
2023-02-14T18:47:19.445Z,102088.91
2023-02-14T18:49:47.241Z,102072.72
2023-02-14T18:52:15.048Z,102073.53
2023-02-14T18:54:42.789Z,102066.38
2023-02-14T18:57:10.596Z,102067.19
2023-02-14T18:59:39.294Z,102069.81
2023-02-14T19:02:07.072Z,102061.59
2023-02-14T19:04:35.044Z,102055.56
2023-02-14T19:07:04.474Z,102053.16
2023-02-14T19:09:38.977Z,102054.75
2023-02-14T19:12:06.818Z,102052.06
2023-02-14T19:14:34.666Z,102042.88
2023-02-14T19:17:02.517Z,102044.00
2023-02-14T19:19:30.247Z,102048.88
2023-02-14T19:21:58.063Z,102035.81
2023-02-14T19:24:26.641Z,102032.06
2023-02-14T19:26:54.802Z,102024.25
2023-02-14T19:29:22.580Z,102026.00
2023-02-14T19:31:50.406Z,102027.31
2023-02-14T19:34:18.217Z,102024.16
2023-02-14T19:36:46.157Z,102022.06
2023-02-14T19:39:13.903Z,102011.53
2023-02-14T19:41:41.840Z,102009.00
2023-02-14T19:44:09.654Z,102008.69
2023-02-14T19:46:38.241Z,102009.25
2023-02-14T19:49:06.010Z,102013.22
2023-02-14T19:51:33.904Z,102020.47
2023-02-14T19:54:01.671Z,102016.06
2023-02-14T19:56:29.394Z,102008.06
2023-02-14T19:58:57.220Z,102014.50
2023-02-14T20:01:25.542Z,102006.91
2023-02-14T20:03:53.564Z,101995.50
2023-02-14T20:06:21.319Z,101990.25
2023-02-14T20:08:49.156Z,101993.38
2023-02-14T20:11:17.039Z,101987.91
2023-02-14T20:13:44.814Z,101986.19
2023-02-14T20:16:12.601Z,101991.97
2023-02-14T20:18:40.349Z,101992.16
2023-02-14T20:21:08.617Z,101987.81
2023-02-14T20:23:36.473Z,101986.56
2023-02-14T20:26:04.347Z,101987.03
2023-02-14T20:28:32.081Z,101975.38
2023-02-14T20:31:00.107Z,101981.31
2023-02-14T20:33:28.180Z,101975.13
2023-02-14T20:35:55.946Z,101969.94
2023-02-14T20:38:23.657Z,101970.00
2023-02-14T20:40:51.370Z,101972.72
2023-02-14T20:43:19.125Z,101969.22
2023-02-14T20:45:46.960Z,101969.88
2023-02-14T20:48:14.774Z,101968.81
2023-02-14T20:50:42.510Z,101971.34
2023-02-14T20:53:10.314Z,101964.78
2023-02-14T20:55:38.135Z,101962.84
2023-02-14T20:58:05.897Z,101969.97
2023-02-14T21:00:33.700Z,101970.28
2023-02-14T21:03:01.433Z,101974.53
2023-02-14T21:05:29.226Z,101964.19
2023-02-14T21:07:57.054Z,101966.22
2023-02-14T21:10:24.831Z,101971.13
2023-02-14T21:12:53.746Z,101966.16
2023-02-14T21:15:21.536Z,101962.88
2023-02-14T21:17:49.471Z,101963.03
2023-02-14T21:20:19.450Z,101963.38
2023-02-14T21:22:47.645Z,101963.97
2023-02-14T21:25:15.617Z,101957.25
2023-02-14T21:27:43.549Z,101953.81
2023-02-14T21:32:39.329Z,101947.28
2023-02-14T21:35:07.089Z,101952.19
2023-02-14T21:37:34.929Z,101957.25
2023-02-14T21:40:02.793Z,101956.53
2023-02-14T21:42:30.709Z,101945.94
2023-02-14T21:45:16.219Z,101949.84
2023-02-14T21:48:04.006Z,101946.56
2023-02-14T21:50:31.107Z,101945.00
2023-02-14T21:52:58.973Z,101948.06
2023-02-14T21:55:26.714Z,101939.47
2023-02-14T21:57:54.496Z,101940.34
2023-02-14T22:00:23.434Z,101945.78
2023-02-14T22:02:51.263Z,101945.78
2023-02-14T22:05:19.132Z,101943.06
2023-02-14T22:07:46.880Z,101933.19
2023-02-14T22:10:14.720Z,101937.53
2023-02-14T22:12:42.536Z,101936.41
2023-02-14T22:15:10.336Z,101935.59
2023-02-14T22:17:38.420Z,101940.38
2023-02-14T22:20:06.361Z,101936.06
2023-02-14T22:22:34.140Z,101926.16
2023-02-14T22:25:02.063Z,101930.22
2023-02-14T22:27:30.291Z,101923.88
2023-02-14T22:29:58.204Z,101919.59
2023-02-14T22:32:26.058Z,101919.75
2023-02-14T22:34:54.968Z,101919.03
2023-02-14T22:37:22.847Z,101918.72
2023-02-14T22:39:50.816Z,101908.84
2023-02-14T22:42:18.839Z,101912.72
2023-02-14T22:44:46.706Z,101911.72
2023-02-14T22:47:14.519Z,101906.41
2023-02-14T22:49:42.420Z,101901.09
2023-02-14T22:52:10.182Z,101903.13
2023-02-14T22:54:38.057Z,101903.44
2023-02-14T22:57:05.863Z,101900.69
2023-02-14T22:59:33.982Z,101901.84
2023-02-14T23:02:02.386Z,101902.56
2023-02-14T23:04:30.559Z,101898.81
2023-02-14T23:06:58.292Z,101905.31
2023-02-14T23:09:26.084Z,101899.84
2023-02-14T23:11:53.941Z,101903.59
2023-02-14T23:14:39.678Z,101898.69
2023-02-14T23:17:24.859Z,101904.13
2023-02-14T23:20:10.358Z,101901.56
2023-02-14T23:22:38.121Z,101901.56
2023-02-14T23:25:05.891Z,101899.13
2023-02-14T23:27:33.670Z,101900.88
2023-02-14T23:30:01.539Z,101889.25
2023-02-14T23:32:29.537Z,101893.13
2023-02-14T23:34:57.430Z,101891.69
2023-02-14T23:37:25.402Z,101894.28
2023-02-14T23:39:53.278Z,101887.81
2023-02-14T23:42:21.058Z,101889.56
2023-02-14T23:44:49.153Z,101889.25
2023-02-14T23:47:17.089Z,101887.50
2023-02-14T23:49:46.209Z,101885.50
2023-02-14T23:52:14.128Z,101886.66
2023-02-14T23:54:42.032Z,101885.81
2023-02-14T23:57:09.848Z,101885.81
2023-02-14T23:59:37.660Z,101879.50
